sensor_id;sensor_type;location;lat;lon;timestamp;temperature;humidity
21085;DHT22;72320;50.082;20.000;2024-02-04T00:01:41;21.20;47.50
21085;DHT22;72320;50.082;20.000;2024-02-04T00:04:07;21.10;47.70
21085;DHT22;72320;50.082;20.000;2024-02-04T00:06:33;21.20;47.50
21085;DHT22;72320;50.082;20.000;2024-02-04T00:08:59;21.30;47.10
21085;DHT22;72320;50.082;20.000;2024-02-04T00:11:24;21.40;47.00
21085;DHT22;72320;50.082;20.000;2024-02-04T00:13:50;21.40;47.10
21085;DHT22;72320;50.082;20.000;2024-02-04T00:16:17;21.50;47.00
21085;DHT22;72320;50.082;20.000;2024-02-04T00:18:43;21.90;46.10
21085;DHT22;72320;50.082;20.000;2024-02-04T00:21:09;21.80;46.20
21085;DHT22;72320;50.082;20.000;2024-02-04T00:23:34;21.80;46.50
21085;DHT22;72320;50.082;20.000;2024-02-04T00:26:00;22.00;46.00
21085;DHT22;72320;50.082;20.000;2024-02-04T00:28:26;22.30;45.30
21085;DHT22;72320;50.082;20.000;2024-02-04T00:30:53;22.30;45.30
21085;DHT22;72320;50.082;20.000;2024-02-04T00:33:23;22.20;45.50
21085;DHT22;72320;50.082;20.000;2024-02-04T00:35:49;22.60;44.80
21085;DHT22;72320;50.082;20.000;2024-02-04T00:38:16;22.90;44.00
21085;DHT22;72320;50.082;20.000;2024-02-04T00:40:42;23.10;43.40
21085;DHT22;72320;50.082;20.000;2024-02-04T00:43:07;23.00;43.70
21085;DHT22;72320;50.082;20.000;2024-02-04T00:45:33;22.60;44.00
21085;DHT22;72320;50.082;20.000;2024-02-04T00:47:59;22.50;44.20
21085;DHT22;72320;50.082;20.000;2024-02-04T00:50:25;22.50;44.20
21085;DHT22;72320;50.082;20.000;2024-02-04T00:52:51;22.30;44.70
21085;DHT22;72320;50.082;20.000;2024-02-04T00:55:19;22.10;44.80
21085;DHT22;72320;50.082;20.000;2024-02-04T00:57:45;21.90;45.40
21085;DHT22;72320;50.082;20.000;2024-02-04T01:00:11;21.60;46.30
21085;DHT22;72320;50.082;20.000;2024-02-04T01:02:40;21.40;47.00
21085;DHT22;72320;50.082;20.000;2024-02-04T01:05:06;21.30;47.30
21085;DHT22;72320;50.082;20.000;2024-02-04T01:07:33;21.10;47.80
21085;DHT22;72320;50.082;20.000;2024-02-04T01:09:58;21.20;47.80
21085;DHT22;72320;50.082;20.000;2024-02-04T01:12:24;21.20;47.90
21085;DHT22;72320;50.082;20.000;2024-02-04T01:14:50;21.00;48.20
21085;DHT22;72320;50.082;20.000;2024-02-04T01:17:15;21.10;48.20
21085;DHT22;72320;50.082;20.000;2024-02-04T01:19:41;21.10;48.40
21085;DHT22;72320;50.082;20.000;2024-02-04T01:22:08;21.40;48.20
21085;DHT22;72320;50.082;20.000;2024-02-04T01:24:33;21.50;47.70
21085;DHT22;72320;50.082;20.000;2024-02-04T01:26:59;21.70;47.60
21085;DHT22;72320;50.082;20.000;2024-02-04T01:29:25;21.80;47.40
21085;DHT22;72320;50.082;20.000;2024-02-04T01:31:51;21.80;47.30
21085;DHT22;72320;50.082;20.000;2024-02-04T01:34:16;22.00;47.20
21085;DHT22;72320;50.082;20.000;2024-02-04T01:36:42;22.20;46.70
21085;DHT22;72320;50.082;20.000;2024-02-04T01:39:08;22.40;46.50
21085;DHT22;72320;50.082;20.000;2024-02-04T01:41:35;22.60;46.10
21085;DHT22;72320;50.082;20.000;2024-02-04T01:44:01;22.80;45.70
21085;DHT22;72320;50.082;20.000;2024-02-04T01:46:28;22.80;45.50
21085;DHT22;72320;50.082;20.000;2024-02-04T01:48:54;22.40;46.80
21085;DHT22;72320;50.082;20.000;2024-02-04T01:51:21;22.50;46.20
21085;DHT22;72320;50.082;20.000;2024-02-04T01:53:47;22.60;46.00
21085;DHT22;72320;50.082;20.000;2024-02-04T01:56:15;22.40;46.30
21085;DHT22;72320;50.082;20.000;2024-02-04T01:58:42;22.40;46.60
21085;DHT22;72320;50.082;20.000;2024-02-04T02:01:09;22.20;46.90
21085;DHT22;72320;50.082;20.000;2024-02-04T02:03:35;21.90;47.80
21085;DHT22;72320;50.082;20.000;2024-02-04T02:06:04;21.90;47.80
21085;DHT22;72320;50.082;20.000;2024-02-04T02:08:31;21.90;47.70
21085;DHT22;72320;50.082;20.000;2024-02-04T02:11:12;22.10;72.90
21085;DHT22;72320;50.082;20.000;2024-02-04T02:14:00;21.70;70.80
21085;DHT22;72320;50.082;20.000;2024-02-04T02:16:32;21.80;61.80
21085;DHT22;72320;50.082;20.000;2024-02-04T02:19:22;22.00;57.10
21085;DHT22;72320;50.082;20.000;2024-02-04T02:22:38;22.20;51.10
21085;DHT22;72320;50.082;20.000;2024-02-04T02:25:07;22.60;50.00
21085;DHT22;72320;50.082;20.000;2024-02-04T02:27:33;22.70;49.50
21085;DHT22;72320;50.082;20.000;2024-02-04T02:29:59;22.80;55.90
21085;DHT22;72320;50.082;20.000;2024-02-04T02:32:24;23.00;48.40
21085;DHT22;72320;50.082;20.000;2024-02-04T02:34:51;23.10;47.20
21085;DHT22;72320;50.082;20.000;2024-02-04T02:40:22;23.20;46.20
21085;DHT22;72320;50.082;20.000;2024-02-04T02:42:55;23.20;46.70
21085;DHT22;72320;50.082;20.000;2024-02-04T02:45:25;23.00;46.00
21085;DHT22;72320;50.082;20.000;2024-02-04T02:47:52;22.90;46.30
21085;DHT22;72320;50.082;20.000;2024-02-04T02:50:19;22.80;46.40
21085;DHT22;72320;50.082;20.000;2024-02-04T02:52:46;22.60;47.60
21085;DHT22;72320;50.082;20.000;2024-02-04T02:55:12;22.50;47.40
21085;DHT22;72320;50.082;20.000;2024-02-04T02:57:38;22.60;47.20
21085;DHT22;72320;50.082;20.000;2024-02-04T03:00:04;22.60;47.20
21085;DHT22;72320;50.082;20.000;2024-02-04T03:02:31;22.60;47.20
21085;DHT22;72320;50.082;20.000;2024-02-04T03:04:58;22.40;47.80
21085;DHT22;72320;50.082;20.000;2024-02-04T03:07:23;21.50;49.10
21085;DHT22;72320;50.082;20.000;2024-02-04T03:09:49;20.90;50.30
21085;DHT22;72320;50.082;20.000;2024-02-04T03:12:15;21.00;50.10
21085;DHT22;72320;50.082;20.000;2024-02-04T03:14:41;20.80;50.30
21085;DHT22;72320;50.082;20.000;2024-02-04T03:17:06;20.90;50.50
21085;DHT22;72320;50.082;20.000;2024-02-04T03:19:32;21.00;49.70
21085;DHT22;72320;50.082;20.000;2024-02-04T03:21:58;21.20;48.90
21085;DHT22;72320;50.082;20.000;2024-02-04T03:24:23;21.00;49.20
21085;DHT22;72320;50.082;20.000;2024-02-04T03:26:49;21.10;48.40
21085;DHT22;72320;50.082;20.000;2024-02-04T03:29:15;21.00;48.70
21085;DHT22;72320;50.082;20.000;2024-02-04T03:31:41;21.10;48.40
21085;DHT22;72320;50.082;20.000;2024-02-04T03:34:06;21.00;48.30
21085;DHT22;72320;50.082;20.000;2024-02-04T03:36:32;21.00;48.00
21085;DHT22;72320;50.082;20.000;2024-02-04T03:38:58;20.80;49.00
21085;DHT22;72320;50.082;20.000;2024-02-04T03:41:24;20.80;48.00
21085;DHT22;72320;50.082;20.000;2024-02-04T03:44:48;20.90;47.40
21085;DHT22;72320;50.082;20.000;2024-02-04T03:48:20;21.00;47.30
21085;DHT22;72320;50.082;20.000;2024-02-04T03:50:46;21.10;46.90
21085;DHT22;72320;50.082;20.000;2024-02-04T03:53:20;20.80;47.50
21085;DHT22;72320;50.082;20.000;2024-02-04T03:56:08;20.70;47.60
21085;DHT22;72320;50.082;20.000;2024-02-04T03:58:33;20.80;47.30
21085;DHT22;72320;50.082;20.000;2024-02-04T04:00:59;21.00;46.80
21085;DHT22;72320;50.082;20.000;2024-02-04T04:03:44;21.00;46.60
21085;DHT22;72320;50.082;20.000;2024-02-04T04:06:10;21.10;46.20
21085;DHT22;72320;50.082;20.000;2024-02-04T04:08:36;21.00;46.80
21085;DHT22;72320;50.082;20.000;2024-02-04T04:11:03;20.80;47.00
21085;DHT22;72320;50.082;20.000;2024-02-04T04:13:30;20.60;47.50
21085;DHT22;72320;50.082;20.000;2024-02-04T04:17:04;20.50;47.50
21085;DHT22;72320;50.082;20.000;2024-02-04T04:19:30;20.50;47.60
21085;DHT22;72320;50.082;20.000;2024-02-04T04:21:58;20.40;47.70
21085;DHT22;72320;50.082;20.000;2024-02-04T04:24:25;20.10;47.90
21085;DHT22;72320;50.082;20.000;2024-02-04T04:26:50;20.00;48.30
21085;DHT22;72320;50.082;20.000;2024-02-04T04:29:16;20.00;48.20
21085;DHT22;72320;50.082;20.000;2024-02-04T04:31:42;19.90;48.20
21085;DHT22;72320;50.082;20.000;2024-02-04T04:34:07;19.90;48.30
21085;DHT22;72320;50.082;20.000;2024-02-04T04:36:33;20.10;47.70
21085;DHT22;72320;50.082;20.000;2024-02-04T04:38:59;20.20;47.60
21085;DHT22;72320;50.082;20.000;2024-02-04T04:41:25;20.10;48.40
21085;DHT22;72320;50.082;20.000;2024-02-04T04:43:51;20.20;47.70
21085;DHT22;72320;50.082;20.000;2024-02-04T04:46:16;20.20;47.60
21085;DHT22;72320;50.082;20.000;2024-02-04T04:48:42;20.60;46.50
21085;DHT22;72320;50.082;20.000;2024-02-04T04:51:08;20.60;46.50
21085;DHT22;72320;50.082;20.000;2024-02-04T04:53:34;20.90;46.20
21085;DHT22;72320;50.082;20.000;2024-02-04T04:56:01;20.80;46.00
21085;DHT22;72320;50.082;20.000;2024-02-04T04:58:27;20.90;45.70
21085;DHT22;72320;50.082;20.000;2024-02-04T05:00:53;20.90;45.80
21085;DHT22;72320;50.082;20.000;2024-02-04T05:03:19;20.80;46.10
21085;DHT22;72320;50.082;20.000;2024-02-04T05:05:45;20.80;46.10
21085;DHT22;72320;50.082;20.000;2024-02-04T05:08:11;20.80;46.00
21085;DHT22;72320;50.082;20.000;2024-02-04T05:10:39;21.00;45.70
21085;DHT22;72320;50.082;20.000;2024-02-04T05:13:05;21.30;45.20
21085;DHT22;72320;50.082;20.000;2024-02-04T05:15:31;21.20;45.30
21085;DHT22;72320;50.082;20.000;2024-02-04T05:17:58;21.30;45.00
21085;DHT22;72320;50.082;20.000;2024-02-04T05:20:24;21.30;45.00
21085;DHT22;72320;50.082;20.000;2024-02-04T05:22:50;21.40;44.90
21085;DHT22;72320;50.082;20.000;2024-02-04T05:25:16;21.60;44.40
21085;DHT22;72320;50.082;20.000;2024-02-04T05:27:41;21.80;43.80
21085;DHT22;72320;50.082;20.000;2024-02-04T05:30:07;21.90;43.40
21085;DHT22;72320;50.082;20.000;2024-02-04T05:32:33;21.90;43.70
21085;DHT22;72320;50.082;20.000;2024-02-04T05:34:59;22.10;43.50
21085;DHT22;72320;50.082;20.000;2024-02-04T05:37:25;21.80;43.80
21085;DHT22;72320;50.082;20.000;2024-02-04T05:39:51;21.80;43.80
21085;DHT22;72320;50.082;20.000;2024-02-04T05:42:16;21.80;43.80
21085;DHT22;72320;50.082;20.000;2024-02-04T05:44:42;21.90;43.50
21085;DHT22;72320;50.082;20.000;2024-02-04T05:47:08;22.00;43.20
21085;DHT22;72320;50.082;20.000;2024-02-04T05:49:33;21.80;43.50
21085;DHT22;72320;50.082;20.000;2024-02-04T05:51:59;21.90;43.40
21085;DHT22;72320;50.082;20.000;2024-02-04T05:54:25;21.80;43.90
21085;DHT22;72320;50.082;20.000;2024-02-04T05:56:51;21.90;43.90
21085;DHT22;72320;50.082;20.000;2024-02-04T05:59:16;21.50;44.60
21085;DHT22;72320;50.082;20.000;2024-02-04T06:01:42;21.10;45.50
21085;DHT22;72320;50.082;20.000;2024-02-04T06:04:09;21.00;45.60
21085;DHT22;72320;50.082;20.000;2024-02-04T06:06:35;20.50;46.10
21085;DHT22;72320;50.082;20.000;2024-02-04T06:09:01;20.20;46.50
21085;DHT22;72320;50.082;20.000;2024-02-04T06:11:28;20.00;46.90
21085;DHT22;72320;50.082;20.000;2024-02-04T06:13:53;20.00;46.60
21085;DHT22;72320;50.082;20.000;2024-02-04T06:16:19;20.20;46.20
21085;DHT22;72320;50.082;20.000;2024-02-04T06:18:45;20.30;45.70
21085;DHT22;72320;50.082;20.000;2024-02-04T06:21:11;20.20;46.00
21085;DHT22;72320;50.082;20.000;2024-02-04T06:23:39;20.20;46.00
21085;DHT22;72320;50.082;20.000;2024-02-04T06:26:05;20.10;46.20
21085;DHT22;72320;50.082;20.000;2024-02-04T06:28:31;19.80;46.90
21085;DHT22;72320;50.082;20.000;2024-02-04T06:30:57;19.80;47.00
21085;DHT22;72320;50.082;20.000;2024-02-04T06:33:23;19.70;47.80
21085;DHT22;72320;50.082;20.000;2024-02-04T06:35:50;19.70;47.70
21085;DHT22;72320;50.082;20.000;2024-02-04T06:38:16;19.90;47.80
21085;DHT22;72320;50.082;20.000;2024-02-04T06:40:42;19.70;48.30
21085;DHT22;72320;50.082;20.000;2024-02-04T06:47:15;20.50;47.30
21085;DHT22;72320;50.082;20.000;2024-02-04T06:49:44;20.00;48.50
21085;DHT22;72320;50.082;20.000;2024-02-04T06:52:12;20.00;48.60
21085;DHT22;72320;50.082;20.000;2024-02-04T06:54:38;19.60;49.40
21085;DHT22;72320;50.082;20.000;2024-02-04T06:57:04;19.60;49.80
21085;DHT22;72320;50.082;20.000;2024-02-04T06:59:30;19.70;48.70
21085;DHT22;72320;50.082;20.000;2024-02-04T07:01:56;19.90;48.00
21085;DHT22;72320;50.082;20.000;2024-02-04T07:07:17;19.80;47.50
21085;DHT22;72320;50.082;20.000;2024-02-04T07:12:32;19.60;48.10
21085;DHT22;72320;50.082;20.000;2024-02-04T07:14:57;19.70;48.10
21085;DHT22;72320;50.082;20.000;2024-02-04T07:17:24;19.70;48.50
21085;DHT22;72320;50.082;20.000;2024-02-04T07:19:50;19.60;48.80
21085;DHT22;72320;50.082;20.000;2024-02-04T07:22:15;19.60;48.90
21085;DHT22;72320;50.082;20.000;2024-02-04T07:24:41;19.60;49.10
21085;DHT22;72320;50.082;20.000;2024-02-04T07:27:07;19.60;49.20
21085;DHT22;72320;50.082;20.000;2024-02-04T07:29:33;19.50;49.60
21085;DHT22;72320;50.082;20.000;2024-02-04T07:31:59;19.50;49.50
21085;DHT22;72320;50.082;20.000;2024-02-04T07:34:25;19.50;49.00
21085;DHT22;72320;50.082;20.000;2024-02-04T07:36:51;19.70;47.30
21085;DHT22;72320;50.082;20.000;2024-02-04T07:39:18;19.90;46.50
21085;DHT22;72320;50.082;20.000;2024-02-04T07:41:43;19.80;46.00
21085;DHT22;72320;50.082;20.000;2024-02-04T07:44:09;19.60;45.60
21085;DHT22;72320;50.082;20.000;2024-02-04T07:46:35;19.60;44.90
21085;DHT22;72320;50.082;20.000;2024-02-04T07:49:01;19.70;44.30
21085;DHT22;72320;50.082;20.000;2024-02-04T07:51:27;19.90;43.30
21085;DHT22;72320;50.082;20.000;2024-02-04T07:53:52;19.90;43.60
21085;DHT22;72320;50.082;20.000;2024-02-04T07:56:18;19.90;43.60
21085;DHT22;72320;50.082;20.000;2024-02-04T07:58:44;20.20;42.80
21085;DHT22;72320;50.082;20.000;2024-02-04T08:01:10;20.20;42.70
21085;DHT22;72320;50.082;20.000;2024-02-04T08:03:35;20.40;42.50
21085;DHT22;72320;50.082;20.000;2024-02-04T08:06:02;20.80;42.00
21085;DHT22;72320;50.082;20.000;2024-02-04T08:08:28;20.90;41.90
21085;DHT22;72320;50.082;20.000;2024-02-04T08:10:53;21.10;41.40
21085;DHT22;72320;50.082;20.000;2024-02-04T08:13:19;21.30;40.70
21085;DHT22;72320;50.082;20.000;2024-02-04T08:15:45;21.10;40.10
21085;DHT22;72320;50.082;20.000;2024-02-04T08:18:10;20.90;40.00
21085;DHT22;72320;50.082;20.000;2024-02-04T08:20:36;21.00;39.90
21085;DHT22;72320;50.082;20.000;2024-02-04T08:23:02;21.30;39.60
21085;DHT22;72320;50.082;20.000;2024-02-04T08:25:28;21.50;39.10
21085;DHT22;72320;50.082;20.000;2024-02-04T08:27:54;21.70;38.40
21085;DHT22;72320;50.082;20.000;2024-02-04T08:30:20;21.50;38.50
21085;DHT22;72320;50.082;20.000;2024-02-04T08:32:46;21.60;38.40
21085;DHT22;72320;50.082;20.000;2024-02-04T08:35:12;22.00;37.80
21085;DHT22;72320;50.082;20.000;2024-02-04T08:37:37;21.90;37.80
21085;DHT22;72320;50.082;20.000;2024-02-04T08:40:05;21.90;37.00
21085;DHT22;72320;50.082;20.000;2024-02-04T08:42:32;21.90;37.00
21085;DHT22;72320;50.082;20.000;2024-02-04T08:44:58;22.00;37.20
21085;DHT22;72320;50.082;20.000;2024-02-04T08:47:23;22.20;36.90
21085;DHT22;72320;50.082;20.000;2024-02-04T08:49:49;22.40;36.60
21085;DHT22;72320;50.082;20.000;2024-02-04T08:52:15;22.60;35.90
21085;DHT22;72320;50.082;20.000;2024-02-04T08:54:40;22.50;35.90
21085;DHT22;72320;50.082;20.000;2024-02-04T08:57:06;22.30;36.90
21085;DHT22;72320;50.082;20.000;2024-02-04T08:59:32;22.40;35.80
21085;DHT22;72320;50.082;20.000;2024-02-04T09:01:58;22.10;36.60
21085;DHT22;72320;50.082;20.000;2024-02-04T09:04:23;22.20;36.60
21085;DHT22;72320;50.082;20.000;2024-02-04T09:06:49;22.00;37.10
21085;DHT22;72320;50.082;20.000;2024-02-04T09:09:15;21.80;37.20
21085;DHT22;72320;50.082;20.000;2024-02-04T09:11:41;21.90;37.40
21085;DHT22;72320;50.082;20.000;2024-02-04T09:14:07;21.80;37.10
21085;DHT22;72320;50.082;20.000;2024-02-04T09:16:32;21.80;37.20
21085;DHT22;72320;50.082;20.000;2024-02-04T09:18:58;21.80;37.30
21085;DHT22;72320;50.082;20.000;2024-02-04T09:21:24;21.60;37.70
21085;DHT22;72320;50.082;20.000;2024-02-04T09:23:50;21.90;37.80
21085;DHT22;72320;50.082;20.000;2024-02-04T09:26:16;21.90;37.70
21085;DHT22;72320;50.082;20.000;2024-02-04T09:28:42;22.00;37.90
21085;DHT22;72320;50.082;20.000;2024-02-04T09:31:08;21.80;38.40
21085;DHT22;72320;50.082;20.000;2024-02-04T09:33:34;21.80;38.70
21085;DHT22;72320;50.082;20.000;2024-02-04T09:36:01;22.20;38.10
21085;DHT22;72320;50.082;20.000;2024-02-04T09:38:26;22.70;37.30
21085;DHT22;72320;50.082;20.000;2024-02-04T09:40:52;22.30;37.60
21085;DHT22;72320;50.082;20.000;2024-02-04T09:43:18;22.00;38.10
21085;DHT22;72320;50.082;20.000;2024-02-04T09:45:45;21.80;39.20
21085;DHT22;72320;50.082;20.000;2024-02-04T09:48:14;21.90;38.70
21085;DHT22;72320;50.082;20.000;2024-02-04T09:50:46;22.10;37.80
21085;DHT22;72320;50.082;20.000;2024-02-04T09:53:12;22.40;38.10
21085;DHT22;72320;50.082;20.000;2024-02-04T09:55:43;22.40;37.20
21085;DHT22;72320;50.082;20.000;2024-02-04T09:58:10;22.10;37.50
21085;DHT22;72320;50.082;20.000;2024-02-04T10:00:36;22.20;37.80
21085;DHT22;72320;50.082;20.000;2024-02-04T10:03:05;22.60;37.00
21085;DHT22;72320;50.082;20.000;2024-02-04T10:05:31;22.70;37.00
21085;DHT22;72320;50.082;20.000;2024-02-04T10:07:57;22.90;36.30
21085;DHT22;72320;50.082;20.000;2024-02-04T10:10:23;22.80;36.70
21085;DHT22;72320;50.082;20.000;2024-02-04T10:12:49;22.60;37.10
21085;DHT22;72320;50.082;20.000;2024-02-04T10:15:15;22.60;36.80
21085;DHT22;72320;50.082;20.000;2024-02-04T10:17:42;22.70;36.70
21085;DHT22;72320;50.082;20.000;2024-02-04T10:20:10;22.60;36.90
21085;DHT22;72320;50.082;20.000;2024-02-04T10:22:37;22.70;37.00
21085;DHT22;72320;50.082;20.000;2024-02-04T10:25:06;22.90;36.80
21085;DHT22;72320;50.082;20.000;2024-02-04T10:27:39;22.60;37.40
21085;DHT22;72320;50.082;20.000;2024-02-04T10:30:06;22.50;37.90
21085;DHT22;72320;50.082;20.000;2024-02-04T10:32:33;22.20;38.60
21085;DHT22;72320;50.082;20.000;2024-02-04T10:34:59;22.30;38.80
21085;DHT22;72320;50.082;20.000;2024-02-04T10:37:28;22.40;38.50
21085;DHT22;72320;50.082;20.000;2024-02-04T10:39:54;22.10;39.00
21085;DHT22;72320;50.082;20.000;2024-02-04T10:42:29;21.80;39.70
21085;DHT22;72320;50.082;20.000;2024-02-04T10:45:00;21.70;39.90
21085;DHT22;72320;50.082;20.000;2024-02-04T10:47:32;22.00;39.30
21085;DHT22;72320;50.082;20.000;2024-02-04T10:50:02;21.70;40.00
21085;DHT22;72320;50.082;20.000;2024-02-04T10:52:31;22.00;39.80
21085;DHT22;72320;50.082;20.000;2024-02-04T10:55:05;22.10;39.40
21085;DHT22;72320;50.082;20.000;2024-02-04T10:57:38;21.90;39.80
21085;DHT22;72320;50.082;20.000;2024-02-04T11:00:05;22.00;39.80
21085;DHT22;72320;50.082;20.000;2024-02-04T11:02:36;22.20;39.40
21085;DHT22;72320;50.082;20.000;2024-02-04T11:05:04;22.10;39.80
21085;DHT22;72320;50.082;20.000;2024-02-04T11:07:33;22.50;38.90
21085;DHT22;72320;50.082;20.000;2024-02-04T11:10:00;22.90;38.40
21085;DHT22;72320;50.082;20.000;2024-02-04T11:12:28;22.80;38.20
21085;DHT22;72320;50.082;20.000;2024-02-04T11:14:59;23.00;38.10
21085;DHT22;72320;50.082;20.000;2024-02-04T11:17:46;23.00;37.30
21085;DHT22;72320;50.082;20.000;2024-02-04T11:23:48;22.00;38.60
21085;DHT22;72320;50.082;20.000;2024-02-04T11:26:28;22.10;38.40
21085;DHT22;72320;50.082;20.000;2024-02-04T11:28:54;22.60;37.30
21085;DHT22;72320;50.082;20.000;2024-02-04T11:31:21;22.80;36.20
21085;DHT22;72320;50.082;20.000;2024-02-04T11:33:47;22.80;36.20
21085;DHT22;72320;50.082;20.000;2024-02-04T11:36:16;22.60;36.00
21085;DHT22;72320;50.082;20.000;2024-02-04T11:38:43;22.60;35.80
21085;DHT22;72320;50.082;20.000;2024-02-04T11:41:21;22.80;35.60
21085;DHT22;72320;50.082;20.000;2024-02-04T11:43:53;22.80;35.50
21085;DHT22;72320;50.082;20.000;2024-02-04T11:46:21;22.60;35.90
21085;DHT22;72320;50.082;20.000;2024-02-04T11:48:53;22.60;36.00
21085;DHT22;72320;50.082;20.000;2024-02-04T11:51:22;22.90;35.50
21085;DHT22;72320;50.082;20.000;2024-02-04T11:53:52;22.80;35.80
21085;DHT22;72320;50.082;20.000;2024-02-04T11:56:20;22.90;35.40
21085;DHT22;72320;50.082;20.000;2024-02-04T11:58:47;22.90;35.20
21085;DHT22;72320;50.082;20.000;2024-02-04T12:01:13;23.10;35.30
21085;DHT22;72320;50.082;20.000;2024-02-04T12:03:38;23.50;34.90
21085;DHT22;72320;50.082;20.000;2024-02-04T12:06:05;23.30;35.00
21085;DHT22;72320;50.082;20.000;2024-02-04T12:08:34;23.20;35.80
21085;DHT22;72320;50.082;20.000;2024-02-04T12:11:00;23.20;35.80
21085;DHT22;72320;50.082;20.000;2024-02-04T12:13:28;23.30;35.70
21085;DHT22;72320;50.082;20.000;2024-02-04T12:15:54;23.20;36.30
21085;DHT22;72320;50.082;20.000;2024-02-04T12:18:20;23.30;36.50
21085;DHT22;72320;50.082;20.000;2024-02-04T12:20:46;23.20;36.60
21085;DHT22;72320;50.082;20.000;2024-02-04T12:23:16;23.20;36.50
21085;DHT22;72320;50.082;20.000;2024-02-04T12:25:44;23.60;36.10
21085;DHT22;72320;50.082;20.000;2024-02-04T12:28:10;23.80;35.50
21085;DHT22;72320;50.082;20.000;2024-02-04T12:30:36;24.00;36.20
21085;DHT22;72320;50.082;20.000;2024-02-04T12:33:02;23.90;36.00
21085;DHT22;72320;50.082;20.000;2024-02-04T12:35:31;23.70;36.40
21085;DHT22;72320;50.082;20.000;2024-02-04T12:37:58;23.50;37.00
21085;DHT22;72320;50.082;20.000;2024-02-04T12:40:26;23.20;37.50
21085;DHT22;72320;50.082;20.000;2024-02-04T12:43:00;22.90;38.40
21085;DHT22;72320;50.082;20.000;2024-02-04T12:45:28;22.70;39.30
21085;DHT22;72320;50.082;20.000;2024-02-04T12:47:55;22.60;39.90
21085;DHT22;72320;50.082;20.000;2024-02-04T12:50:22;22.60;40.90
21085;DHT22;72320;50.082;20.000;2024-02-04T12:53:00;22.90;40.80
21085;DHT22;72320;50.082;20.000;2024-02-04T12:55:30;23.00;40.20
21085;DHT22;72320;50.082;20.000;2024-02-04T12:58:16;22.50;42.00
21085;DHT22;72320;50.082;20.000;2024-02-04T13:00:43;22.20;42.90
21085;DHT22;72320;50.082;20.000;2024-02-04T13:03:09;22.30;43.40
21085;DHT22;72320;50.082;20.000;2024-02-04T13:05:35;22.40;43.30
21085;DHT22;72320;50.082;20.000;2024-02-04T13:08:03;22.70;43.60
21085;DHT22;72320;50.082;20.000;2024-02-04T13:10:34;22.90;43.10
21085;DHT22;72320;50.082;20.000;2024-02-04T13:13:05;22.50;43.50
21085;DHT22;72320;50.082;20.000;2024-02-04T13:15:37;22.70;44.40
21085;DHT22;72320;50.082;20.000;2024-02-04T13:18:06;22.80;43.70
21085;DHT22;72320;50.082;20.000;2024-02-04T13:20:32;22.50;46.00
21085;DHT22;72320;50.082;20.000;2024-02-04T13:22:58;22.80;45.50
21085;DHT22;72320;50.082;20.000;2024-02-04T13:25:25;23.10;43.80
21085;DHT22;72320;50.082;20.000;2024-02-04T13:27:51;23.10;43.80
21085;DHT22;72320;50.082;20.000;2024-02-04T13:30:18;23.10;43.60
21085;DHT22;72320;50.082;20.000;2024-02-04T13:32:45;23.10;43.80
21085;DHT22;72320;50.082;20.000;2024-02-04T13:35:11;22.90;44.00
21085;DHT22;72320;50.082;20.000;2024-02-04T13:37:41;23.00;44.00
21085;DHT22;72320;50.082;20.000;2024-02-04T13:40:15;23.00;43.90
21085;DHT22;72320;50.082;20.000;2024-02-04T13:42:43;22.80;44.20
21085;DHT22;72320;50.082;20.000;2024-02-04T13:45:09;23.00;44.10
21085;DHT22;72320;50.082;20.000;2024-02-04T13:47:38;22.80;44.00
21085;DHT22;72320;50.082;20.000;2024-02-04T13:50:04;22.90;44.20
21085;DHT22;72320;50.082;20.000;2024-02-04T13:52:31;22.90;44.40
21085;DHT22;72320;50.082;20.000;2024-02-04T13:54:57;23.00;44.10
21085;DHT22;72320;50.082;20.000;2024-02-04T13:57:22;23.10;43.80
21085;DHT22;72320;50.082;20.000;2024-02-04T13:59:48;23.30;43.80
21085;DHT22;72320;50.082;20.000;2024-02-04T14:02:14;23.30;43.40
21085;DHT22;72320;50.082;20.000;2024-02-04T14:04:40;23.00;44.10
21085;DHT22;72320;50.082;20.000;2024-02-04T14:07:06;22.90;44.30
21085;DHT22;72320;50.082;20.000;2024-02-04T14:09:32;22.90;44.30
21085;DHT22;72320;50.082;20.000;2024-02-04T14:11:57;22.70;44.90
21085;DHT22;72320;50.082;20.000;2024-02-04T14:14:23;22.30;45.50
21085;DHT22;72320;50.082;20.000;2024-02-04T14:16:49;21.90;47.10
21085;DHT22;72320;50.082;20.000;2024-02-04T14:19:16;21.70;46.90
21085;DHT22;72320;50.082;20.000;2024-02-04T14:21:42;21.70;47.10
21085;DHT22;72320;50.082;20.000;2024-02-04T14:24:08;21.80;47.00
21085;DHT22;72320;50.082;20.000;2024-02-04T14:26:34;21.60;47.40
21085;DHT22;72320;50.082;20.000;2024-02-04T14:29:00;21.50;47.60
21085;DHT22;72320;50.082;20.000;2024-02-04T14:31:26;21.40;47.30
21085;DHT22;72320;50.082;20.000;2024-02-04T14:33:51;21.40;47.70
21085;DHT22;72320;50.082;20.000;2024-02-04T14:36:17;21.40;46.90
21085;DHT22;72320;50.082;20.000;2024-02-04T14:38:43;21.10;47.20
21085;DHT22;72320;50.082;20.000;2024-02-04T14:41:09;21.10;47.10
21085;DHT22;72320;50.082;20.000;2024-02-04T14:43:35;21.20;47.10
21085;DHT22;72320;50.082;20.000;2024-02-04T14:46:01;21.50;46.40
21085;DHT22;72320;50.082;20.000;2024-02-04T14:48:27;21.50;46.40
21085;DHT22;72320;50.082;20.000;2024-02-04T14:50:53;21.30;46.60
21085;DHT22;72320;50.082;20.000;2024-02-04T14:53:19;21.10;47.00
21085;DHT22;72320;50.082;20.000;2024-02-04T14:55:45;21.10;47.10
21085;DHT22;72320;50.082;20.000;2024-02-04T14:58:11;21.10;47.00
21085;DHT22;72320;50.082;20.000;2024-02-04T15:00:37;21.00;47.10
21085;DHT22;72320;50.082;20.000;2024-02-04T15:03:03;21.00;47.30
21085;DHT22;72320;50.082;20.000;2024-02-04T15:05:29;21.20;46.70
21085;DHT22;72320;50.082;20.000;2024-02-04T15:07:55;21.10;46.90
21085;DHT22;72320;50.082;20.000;2024-02-04T15:10:21;21.20;46.90
21085;DHT22;72320;50.082;20.000;2024-02-04T15:12:48;21.10;47.10
21085;DHT22;72320;50.082;20.000;2024-02-04T15:15:17;21.00;47.30
21085;DHT22;72320;50.082;20.000;2024-02-04T15:17:44;21.00;47.30
21085;DHT22;72320;50.082;20.000;2024-02-04T15:20:10;21.10;47.10
21085;DHT22;72320;50.082;20.000;2024-02-04T15:22:41;21.20;46.80
21085;DHT22;72320;50.082;20.000;2024-02-04T15:25:07;21.40;46.40
21085;DHT22;72320;50.082;20.000;2024-02-04T15:27:34;21.40;46.20
21085;DHT22;72320;50.082;20.000;2024-02-04T15:30:00;21.60;45.80
21085;DHT22;72320;50.082;20.000;2024-02-04T15:32:28;22.00;44.90
21085;DHT22;72320;50.082;20.000;2024-02-04T15:34:54;22.10;44.70